sensor_id;sensor_type;location;lat;lon;timestamp;pressure;altitude;pressure_sealevel;temperature;humidity
8573;BME280;4324;42.012;24.872;2022-11-27T00:00:41;99935.31;;;6.29;66.05
8573;BME280;4324;42.012;24.872;2022-11-27T00:03:09;100015.09;;;6.76;65.44
8573;BME280;4324;42.012;24.872;2022-11-27T00:05:36;99995.44;;;6.58;65.66
8573;BME280;4324;42.012;24.872;2022-11-27T00:08:03;100017.72;;;6.76;65.62
8573;BME280;4324;42.012;24.872;2022-11-27T00:10:30;100022.03;;;6.77;66.00
8573;BME280;4324;42.012;24.872;2022-11-27T00:12:57;99974.97;;;6.50;66.40
8573;BME280;4324;42.012;24.872;2022-11-27T00:15:24;99971.38;;;6.51;66.00
8573;BME280;4324;42.012;24.872;2022-11-27T00:17:53;99959.63;;;6.44;66.36
8573;BME280;4324;42.012;24.872;2022-11-27T00:20:20;99998.81;;;6.71;66.75
8573;BME280;4324;42.012;24.872;2022-11-27T00:22:47;100017.28;;;6.83;66.62
8573;BME280;4324;42.012;24.872;2022-11-27T00:25:14;99946.59;;;6.43;66.88
8573;BME280;4324;42.012;24.872;2022-11-27T00:27:41;99971.13;;;6.54;66.72
8573;BME280;4324;42.012;24.872;2022-11-27T00:30:09;100000.97;;;6.77;66.91
8573;BME280;4324;42.012;24.872;2022-11-27T00:32:36;100012.59;;;6.86;66.48
8573;BME280;4324;42.012;24.872;2022-11-27T00:35:05;99999.78;;;6.82;66.69
8573;BME280;4324;42.012;24.872;2022-11-27T00:37:33;100012.59;;;6.86;66.37
8573;BME280;4324;42.012;24.872;2022-11-27T00:40:00;99973.78;;;6.66;66.84
8573;BME280;4324;42.012;24.872;2022-11-27T00:42:27;100029.47;;;6.95;67.15
8573;BME280;4324;42.012;24.872;2022-11-27T00:44:54;100006.13;;;6.79;66.59
8573;BME280;4324;42.012;24.872;2022-11-27T00:47:21;100015.56;;;6.82;67.30
8573;BME280;4324;42.012;24.872;2022-11-27T00:49:48;99990.53;;;6.65;66.79
8573;BME280;4324;42.012;24.872;2022-11-27T00:52:17;99994.38;;;6.61;67.26
8573;BME280;4324;42.012;24.872;2022-11-27T00:54:44;100035.94;;;6.91;67.72
8573;BME280;4324;42.012;24.872;2022-11-27T00:57:11;100027.78;;;6.83;67.55
8573;BME280;4324;42.012;24.872;2022-11-27T00:59:38;100025.88;;;6.85;68.03
8573;BME280;4324;42.012;24.872;2022-11-27T01:02:05;100021.78;;;6.81;67.20
8573;BME280;4324;42.012;24.872;2022-11-27T01:04:32;99982.03;;;6.61;68.47
8573;BME280;4324;42.012;24.872;2022-11-27T01:07:00;99981.91;;;6.63;68.77
8573;BME280;4324;42.012;24.872;2022-11-27T01:09:28;100023.75;;;6.90;69.10
8573;BME280;4324;42.012;24.872;2022-11-27T01:11:55;99975.59;;;6.65;69.41
8573;BME280;4324;42.012;24.872;2022-11-27T01:14:22;99970.69;;;6.61;69.68
8573;BME280;4324;42.012;24.872;2022-11-27T01:16:49;100014.88;;;6.91;70.30
8573;BME280;4324;42.012;24.872;2022-11-27T01:19:16;100006.97;;;6.79;69.68
8573;BME280;4324;42.012;24.872;2022-11-27T01:21:43;99976.19;;;6.58;69.06
8573;BME280;4324;42.012;24.872;2022-11-27T01:24:12;100019.53;;;6.87;68.91
8573;BME280;4324;42.012;24.872;2022-11-27T01:26:41;99983.34;;;6.67;68.38
8573;BME280;4324;42.012;24.872;2022-11-27T01:29:08;100014.16;;;6.89;68.93
8573;BME280;4324;42.012;24.872;2022-11-27T01:31:36;99993.81;;;6.79;69.60
8573;BME280;4324;42.012;24.872;2022-11-27T01:34:05;99968.88;;;6.61;69.13
8573;BME280;4324;42.012;24.872;2022-11-27T01:36:33;100004.09;;;6.83;69.05
8573;BME280;4324;42.012;24.872;2022-11-27T01:39:00;99975.72;;;6.64;69.07
8573;BME280;4324;42.012;24.872;2022-11-27T01:41:30;100021.59;;;6.95;69.23
8573;BME280;4324;42.012;24.872;2022-11-27T01:43:59;99933.94;;;6.48;68.92
8573;BME280;4324;42.012;24.872;2022-11-27T01:46:33;99972.50;;;6.71;70.04
8573;BME280;4324;42.012;24.872;2022-11-27T01:49:21;99928.28;;;6.41;69.74
8573;BME280;4324;42.012;24.872;2022-11-27T01:51:51;100013.66;;;6.84;70.07
8573;BME280;4324;42.012;24.872;2022-11-27T01:54:23;100019.16;;;6.69;70.28
8573;BME280;4324;42.012;24.872;2022-11-27T01:56:53;99970.25;;;6.32;70.61
8573;BME280;4324;42.012;24.872;2022-11-27T01:59:23;99967.69;;;6.19;70.90
8573;BME280;4324;42.012;24.872;2022-11-27T02:01:50;100026.59;;;6.40;71.44
8573;BME280;4324;42.012;24.872;2022-11-27T02:04:18;99937.50;;;5.76;70.95
8573;BME280;4324;42.012;24.872;2022-11-27T02:06:45;99989.47;;;5.97;70.99
8573;BME280;4324;42.012;24.872;2022-11-27T02:09:12;99991.38;;;5.95;71.53
8573;BME280;4324;42.012;24.872;2022-11-27T02:11:43;99970.50;;;5.80;71.90
8573;BME280;4324;42.012;24.872;2022-11-27T02:14:18;100015.38;;;6.14;72.68
8573;BME280;4324;42.012;24.872;2022-11-27T02:16:54;100021.47;;;6.15;72.37
8573;BME280;4324;42.012;24.872;2022-11-27T02:19:32;99988.00;;;5.93;72.25
8573;BME280;4324;42.012;24.872;2022-11-27T02:22:08;100022.69;;;6.22;72.65
8573;BME280;4324;42.012;24.872;2022-11-27T02:24:47;100006.41;;;6.17;73.03
8573;BME280;4324;42.012;24.872;2022-11-27T02:27:30;100001.13;;;6.05;72.50
8573;BME280;4324;42.012;24.872;2022-11-27T02:30:03;100026.94;;;6.12;72.93
8573;BME280;4324;42.012;24.872;2022-11-27T02:32:36;100029.22;;;6.05;73.41
8573;BME280;4324;42.012;24.872;2022-11-27T02:35:08;99986.59;;;5.76;73.45
8573;BME280;4324;42.012;24.872;2022-11-27T02:37:45;99973.75;;;5.60;73.92
8573;BME280;4324;42.012;24.872;2022-11-27T02:40:15;100021.66;;;5.88;73.84
8573;BME280;4324;42.012;24.872;2022-11-27T02:42:47;99986.75;;;5.62;74.00
8573;BME280;4324;42.012;24.872;2022-11-27T02:45:22;100031.69;;;5.82;73.86
8573;BME280;4324;42.012;24.872;2022-11-27T02:47:50;99981.09;;;5.55;74.09
8573;BME280;4324;42.012;24.872;2022-11-27T02:50:20;99986.25;;;5.56;74.55
8573;BME280;4324;42.012;24.872;2022-11-27T02:52:50;99988.00;;;5.56;74.99
8573;BME280;4324;42.012;24.872;2022-11-27T02:55:22;100029.06;;;5.82;75.38
8573;BME280;4324;42.012;24.872;2022-11-27T02:57:53;99950.66;;;5.40;75.26
8573;BME280;4324;42.012;24.872;2022-11-27T03:00:23;100024.41;;;5.86;75.62
8573;BME280;4324;42.012;24.872;2022-11-27T03:02:52;100033.44;;;5.82;75.33
8573;BME280;4324;42.012;24.872;2022-11-27T03:05:22;99996.72;;;5.69;76.04
8573;BME280;4324;42.012;24.872;2022-11-27T03:07:55;100021.78;;;5.86;75.97
8573;BME280;4324;42.012;24.872;2022-11-27T03:10:28;100040.50;;;5.94;76.20
8573;BME280;4324;42.012;24.872;2022-11-27T03:12:57;100047.31;;;5.97;75.68
8573;BME280;4324;42.012;24.872;2022-11-27T03:15:31;100019.16;;;5.86;75.77
8573;BME280;4324;42.012;24.872;2022-11-27T03:18:08;100037.03;;;5.94;76.13
8573;BME280;4324;42.012;24.872;2022-11-27T03:20:40;100023.66;;;5.84;76.36
8573;BME280;4324;42.012;24.872;2022-11-27T03:23:09;99987.25;;;5.67;76.57
8573;BME280;4324;42.012;24.872;2022-11-27T03:25:36;100037.75;;;5.96;76.57
8573;BME280;4324;42.012;24.872;2022-11-27T03:28:07;100008.34;;;5.78;76.58
8573;BME280;4324;42.012;24.872;2022-11-27T03:30:36;100032.91;;;5.90;76.74
8573;BME280;4324;42.012;24.872;2022-11-27T03:33:03;100005.22;;;5.73;76.78
8573;BME280;4324;42.012;24.872;2022-11-27T03:35:32;100039.66;;;5.94;76.66
8573;BME280;4324;42.012;24.872;2022-11-27T03:37:59;100051.41;;;6.01;76.60
8573;BME280;4324;42.012;24.872;2022-11-27T03:40:29;100043.22;;;5.93;76.93
8573;BME280;4324;42.012;24.872;2022-11-27T03:43:04;99981.72;;;5.58;76.59
8573;BME280;4324;42.012;24.872;2022-11-27T03:45:41;100021.88;;;5.85;76.71
8573;BME280;4324;42.012;24.872;2022-11-27T03:48:16;100046.16;;;6.01;76.99
8573;BME280;4324;42.012;24.872;2022-11-27T03:50:54;100046.88;;;6.03;77.29
8573;BME280;4324;42.012;24.872;2022-11-27T03:53:31;99960.28;;;5.52;77.64
8573;BME280;4324;42.012;24.872;2022-11-27T03:56:05;100033.72;;;6.03;77.64
8573;BME280;4324;42.012;24.872;2022-11-27T03:58:35;100013.78;;;5.88;77.46
8573;BME280;4324;42.012;24.872;2022-11-27T04:01:08;100044.84;;;6.06;77.47
8573;BME280;4324;42.012;24.872;2022-11-27T04:03:36;100041.28;;;6.07;77.70
8573;BME280;4324;42.012;24.872;2022-11-27T04:06:03;100026.66;;;6.03;77.88
8573;BME280;4324;42.012;24.872;2022-11-27T04:08:34;100026.19;;;5.98;77.99
8573;BME280;4324;42.012;24.872;2022-11-27T04:11:01;99992.41;;;5.68;77.60
8573;BME280;4324;42.012;24.872;2022-11-27T04:13:28;100009.63;;;5.72;77.20
8573;BME280;4324;42.012;24.872;2022-11-27T04:15:55;99990.22;;;5.62;77.38
8573;BME280;4324;42.012;24.872;2022-11-27T04:18:26;100021.25;;;5.94;77.76
8573;BME280;4324;42.012;24.872;2022-11-27T04:20:53;100018.63;;;5.94;78.31
8573;BME280;4324;42.012;24.872;2022-11-27T04:23:21;100026.78;;;6.02;77.91
8573;BME280;4324;42.012;24.872;2022-11-27T04:25:48;100015.75;;;5.97;78.58
8573;BME280;4324;42.012;24.872;2022-11-27T04:28:16;100004.72;;;5.92;78.60
8573;BME280;4324;42.012;24.872;2022-11-27T04:30:43;99977.41;;;5.81;78.57
8573;BME280;4324;42.012;24.872;2022-11-27T04:33:10;99942.81;;;5.64;78.95
8573;BME280;4324;42.012;24.872;2022-11-27T04:35:39;100016.41;;;6.12;78.96
8573;BME280;4324;42.012;24.872;2022-11-27T04:38:06;99992.34;;;5.94;78.75
8573;BME280;4324;42.012;24.872;2022-11-27T04:40:33;100033.69;;;6.16;78.27
8573;BME280;4324;42.012;24.872;2022-11-27T04:43:00;100043.38;;;6.26;78.31
8573;BME280;4324;42.012;24.872;2022-11-27T04:45:27;99991.88;;;6.00;78.35
8573;BME280;4324;42.012;24.872;2022-11-27T04:47:55;99997.75;;;6.03;78.43
8573;BME280;4324;42.012;24.872;2022-11-27T04:50:22;100030.97;;;6.28;78.72
8573;BME280;4324;42.012;24.872;2022-11-27T04:52:50;100028.72;;;6.35;78.62
8573;BME280;4324;42.012;24.872;2022-11-27T04:55:17;99976.38;;;6.08;78.85
8573;BME280;4324;42.012;24.872;2022-11-27T04:57:44;100030.28;;;6.38;78.92
8573;BME280;4324;42.012;24.872;2022-11-27T05:00:12;99976.88;;;6.13;78.83
8573;BME280;4324;42.012;24.872;2022-11-27T05:02:39;99992.09;;;6.21;78.60
8573;BME280;4324;42.012;24.872;2022-11-27T05:05:07;100044.00;;;6.54;78.70
8573;BME280;4324;42.012;24.872;2022-11-27T05:07:34;100016.19;;;6.39;78.77
8573;BME280;4324;42.012;24.872;2022-11-27T05:10:03;100008.78;;;6.44;78.44
8573;BME280;4324;42.012;24.872;2022-11-27T05:12:30;100007.59;;;6.48;78.21
8573;BME280;4324;42.012;24.872;2022-11-27T05:14:57;100028.69;;;6.59;78.15
8573;BME280;4324;42.012;24.872;2022-11-27T05:17:24;100014.81;;;6.57;78.31
8573;BME280;4324;42.012;24.872;2022-11-27T05:19:51;100048.72;;;6.73;78.12
8573;BME280;4324;42.012;24.872;2022-11-27T05:22:18;100045.84;;;6.76;78.14
8573;BME280;4324;42.012;24.872;2022-11-27T05:24:45;100025.59;;;6.65;78.25
8573;BME280;4324;42.012;24.872;2022-11-27T05:27:14;100002.72;;;6.54;78.39
8573;BME280;4324;42.012;24.872;2022-11-27T05:29:41;99998.28;;;6.55;78.52
8573;BME280;4324;42.012;24.872;2022-11-27T05:32:08;99983.22;;;6.46;78.18
8573;BME280;4324;42.012;24.872;2022-11-27T05:34:35;99993.75;;;6.57;78.46
8573;BME280;4324;42.012;24.872;2022-11-27T05:37:02;99979.22;;;6.40;78.15
8573;BME280;4324;42.012;24.872;2022-11-27T05:39:29;100005.13;;;6.58;77.15
8573;BME280;4324;42.012;24.872;2022-11-27T05:41:56;100003.09;;;6.61;77.50
8573;BME280;4324;42.012;24.872;2022-11-27T05:44:26;100054.38;;;6.91;77.77
8573;BME280;4324;42.012;24.872;2022-11-27T05:46:53;100012.56;;;6.64;77.85
8573;BME280;4324;42.012;24.872;2022-11-27T05:49:21;100068.72;;;6.87;78.53
8573;BME280;4324;42.012;24.872;2022-11-27T05:51:48;100063.66;;;6.72;77.94
8573;BME280;4324;42.012;24.872;2022-11-27T05:54:15;100015.69;;;6.34;78.55
8573;BME280;4324;42.012;24.872;2022-11-27T05:56:42;100076.63;;;6.51;78.67
8573;BME280;4324;42.012;24.872;2022-11-27T05:59:10;100062.38;;;6.43;78.85
8573;BME280;4324;42.012;24.872;2022-11-27T06:01:39;100068.28;;;6.34;79.04
8573;BME280;4324;42.012;24.872;2022-11-27T06:04:06;100079.78;;;6.33;79.40
8573;BME280;4324;42.012;24.872;2022-11-27T06:06:33;100049.28;;;6.06;79.25
8573;BME280;4324;42.012;24.872;2022-11-27T06:09:00;100037.75;;;5.96;79.18
8573;BME280;4324;42.012;24.872;2022-11-27T06:11:27;100098.41;;;6.29;79.06
8573;BME280;4324;42.012;24.872;2022-11-27T06:13:54;100076.13;;;6.22;79.33
8573;BME280;4324;42.012;24.872;2022-11-27T06:16:22;100063.66;;;6.13;78.83
8573;BME280;4324;42.012;24.872;2022-11-27T06:18:52;100010.25;;;5.76;79.45
8573;BME280;4324;42.012;24.872;2022-11-27T06:21:21;100053.38;;;6.10;79.41
8573;BME280;4324;42.012;24.872;2022-11-27T06:23:52;100040.91;;;6.01;79.21
8573;BME280;4324;42.012;24.872;2022-11-27T06:26:21;100096.03;;;6.38;79.39
8573;BME280;4324;42.012;24.872;2022-11-27T06:29:08;100101.31;;;6.38;79.54
8573;BME280;4324;42.012;24.872;2022-11-27T06:32:17;100052.19;;;6.14;79.56
8573;BME280;4324;42.012;24.872;2022-11-27T06:34:46;100017.09;;;6.02;79.52
8573;BME280;4324;42.012;24.872;2022-11-27T06:37:13;100069.41;;;6.42;79.50
8573;BME280;4324;42.012;24.872;2022-11-27T06:39:40;100091.13;;;6.57;79.38
8573;BME280;4324;42.012;24.872;2022-11-27T06:42:07;100092.09;;;6.67;79.08
8573;BME280;4324;42.012;24.872;2022-11-27T06:44:35;100092.00;;;6.69;79.46
8573;BME280;4324;42.012;24.872;2022-11-27T06:47:05;100051.97;;;6.52;79.46
8573;BME280;4324;42.012;24.872;2022-11-27T06:49:33;100088.66;;;6.78;79.43
8573;BME280;4324;42.012;24.872;2022-11-27T06:52:01;100094.53;;;6.82;79.44
8573;BME280;4324;42.012;24.872;2022-11-27T06:54:28;100042.06;;;6.56;79.40
8573;BME280;4324;42.012;24.872;2022-11-27T06:56:55;100096.16;;;6.95;79.59
8573;BME280;4324;42.012;24.872;2022-11-27T06:59:23;100015.03;;;6.54;79.12
8573;BME280;4324;42.012;24.872;2022-11-27T07:01:59;100040.13;;;6.93;78.88
8573;BME280;4324;42.012;24.872;2022-11-27T07:04:26;100022.03;;;6.89;78.44
8573;BME280;4324;42.012;24.872;2022-11-27T07:06:54;100093.47;;;7.42;78.47
8573;BME280;4324;42.012;24.872;2022-11-27T07:09:22;100082.06;;;7.41;78.34
8573;BME280;4324;42.012;24.872;2022-11-27T07:11:49;100075.72;;;7.44;78.17
8573;BME280;4324;42.012;24.872;2022-11-27T07:14:16;100073.34;;;7.52;78.27
8573;BME280;4324;42.012;24.872;2022-11-27T07:16:44;100084.84;;;7.62;78.16
8573;BME280;4324;42.012;24.872;2022-11-27T07:19:11;100105.22;;;7.71;78.22
8573;BME280;4324;42.012;24.872;2022-11-27T07:21:39;100104.72;;;7.78;77.94
8573;BME280;4324;42.012;24.872;2022-11-27T07:24:07;100090.91;;;7.85;77.70
8573;BME280;4324;42.012;24.872;2022-11-27T07:26:35;100059.19;;;7.75;77.60
8573;BME280;4324;42.012;24.872;2022-11-27T07:29:02;100099.78;;;8.07;77.56
8573;BME280;4324;42.012;24.872;2022-11-27T07:31:29;100097.72;;;8.10;77.43
8573;BME280;4324;42.012;24.872;2022-11-27T07:33:57;100025.16;;;7.72;77.38
8573;BME280;4324;42.012;24.872;2022-11-27T07:36:25;100087.13;;;8.21;77.63
8573;BME280;4324;42.012;24.872;2022-11-27T07:38:53;100060.34;;;8.05;77.43
8573;BME280;4324;42.012;24.872;2022-11-27T07:41:20;100040.16;;;8.04;77.40
8573;BME280;4324;42.012;24.872;2022-11-27T07:43:49;100056.06;;;8.25;77.13
8573;BME280;4324;42.012;24.872;2022-11-27T07:46:17;100074.94;;;8.53;76.65
8573;BME280;4324;42.012;24.872;2022-11-27T07:48:47;100078.00;;;8.69;76.83
8573;BME280;4324;42.012;24.872;2022-11-27T07:51:17;100094.88;;;8.78;76.80
8573;BME280;4324;42.012;24.872;2022-11-27T07:53:44;100091.66;;;8.74;77.02
8573;BME280;4324;42.012;24.872;2022-11-27T07:56:14;100030.84;;;8.43;76.77
8573;BME280;4324;42.012;24.872;2022-11-27T07:58:41;100080.69;;;8.79;76.92
8573;BME280;4324;42.012;24.872;2022-11-27T08:01:12;100035.22;;;8.54;76.91
8573;BME280;4324;42.012;24.872;2022-11-27T08:03:39;100057.97;;;8.66;76.64
8573;BME280;4324;42.012;24.872;2022-11-27T08:06:14;100082.06;;;8.94;76.28
8573;BME280;4324;42.012;24.872;2022-11-27T08:08:42;100079.16;;;8.97;76.36
8573;BME280;4324;42.012;24.872;2022-11-27T08:11:16;100004.06;;;8.48;76.26
8573;BME280;4324;42.012;24.872;2022-11-27T08:13:44;100046.25;;;8.80;76.28
8573;BME280;4324;42.012;24.872;2022-11-27T08:16:12;100042.13;;;8.87;76.14
8573;BME280;4324;42.012;24.872;2022-11-27T08:18:39;100070.63;;;9.14;76.24
8573;BME280;4324;42.012;24.872;2022-11-27T08:21:06;100069.41;;;9.18;76.10
8573;BME280;4324;42.012;24.872;2022-11-27T08:23:33;100075.75;;;9.27;75.73
8573;BME280;4324;42.012;24.872;2022-11-27T08:26:04;100052.88;;;9.16;75.35
8573;BME280;4324;42.012;24.872;2022-11-27T08:28:31;100091.28;;;9.51;75.46
8573;BME280;4324;42.012;24.872;2022-11-27T08:30:59;100082.09;;;9.55;74.96
8573;BME280;4324;42.012;24.872;2022-11-27T08:33:35;100081.19;;;9.66;75.00
8573;BME280;4324;42.012;24.872;2022-11-27T08:36:09;100037.00;;;9.47;74.96
8573;BME280;4324;42.012;24.872;2022-11-27T08:38:37;100034.50;;;9.55;75.01
8573;BME280;4324;42.012;24.872;2022-11-27T08:41:05;100072.72;;;9.82;74.73
8573;BME280;4324;42.012;24.872;2022-11-27T08:43:33;100071.47;;;9.86;74.66
8573;BME280;4324;42.012;24.872;2022-11-27T08:46:02;100070.38;;;9.88;74.19
8573;BME280;4324;42.012;24.872;2022-11-27T08:48:31;100042.06;;;9.69;74.29
8573;BME280;4324;42.012;24.872;2022-11-27T08:50:58;100083.47;;;9.90;74.41
8573;BME280;4324;42.012;24.872;2022-11-27T08:53:35;100068.69;;;9.78;74.61
8573;BME280;4324;42.012;24.872;2022-11-27T08:56:08;100085.69;;;9.85;74.67
8573;BME280;4324;42.012;24.872;2022-11-27T08:58:36;100076.09;;;9.84;74.77
8573;BME280;4324;42.012;24.872;2022-11-27T09:01:09;100017.34;;;9.40;74.69
8573;BME280;4324;42.012;24.872;2022-11-27T09:03:38;100046.50;;;9.59;74.38
8573;BME280;4324;42.012;24.872;2022-11-27T09:06:06;100043.06;;;9.68;74.40
8573;BME280;4324;42.012;24.872;2022-11-27T09:08:36;100078.94;;;10.02;74.18
8573;BME280;4324;42.012;24.872;2022-11-27T09:11:04;100076.41;;;10.00;74.24
8573;BME280;4324;42.012;24.872;2022-11-27T09:13:31;100041.13;;;9.90;74.56
8573;BME280;4324;42.012;24.872;2022-11-27T09:16:01;100062.47;;;10.08;74.87
8573;BME280;4324;42.012;24.872;2022-11-27T09:18:30;100047.56;;;9.97;74.72
8573;BME280;4324;42.012;24.872;2022-11-27T09:21:55;99997.69;;;9.73;74.89
8573;BME280;4324;42.012;24.872;2022-11-27T09:24:31;100050.09;;;10.08;74.73
8573;BME280;4324;42.012;24.872;2022-11-27T09:26:59;100041.19;;;10.09;74.37
8573;BME280;4324;42.012;24.872;2022-11-27T09:29:28;100024.19;;;10.02;74.49
8573;BME280;4324;42.012;24.872;2022-11-27T09:31:55;100038.09;;;10.04;74.25
8573;BME280;4324;42.012;24.872;2022-11-27T09:34:23;100030.88;;;10.06;74.48
8573;BME280;4324;42.012;24.872;2022-11-27T09:36:51;100014.97;;;9.97;74.22
8573;BME280;4324;42.012;24.872;2022-11-27T09:39:18;99978.06;;;9.76;74.33
8573;BME280;4324;42.012;24.872;2022-11-27T09:41:48;100004.09;;;9.90;74.13
8573;BME280;4324;42.012;24.872;2022-11-27T09:44:23;100013.03;;;10.08;73.70
8573;BME280;4324;42.012;24.872;2022-11-27T09:46:51;99973.47;;;9.97;73.56
8573;BME280;4324;42.012;24.872;2022-11-27T09:49:26;99951.19;;;10.00;73.54
8573;BME280;4324;42.012;24.872;2022-11-27T09:52:00;99990.22;;;10.27;72.97
8573;BME280;4324;42.012;24.872;2022-11-27T09:54:50;99991.66;;;10.31;73.23
8573;BME280;4324;42.012;24.872;2022-11-27T09:57:28;99943.94;;;10.11;72.93
8573;BME280;4324;42.012;24.872;2022-11-27T10:00:00;99896.59;;;9.89;73.04
8573;BME280;4324;42.012;24.872;2022-11-27T10:02:35;99981.03;;;10.50;72.88
8573;BME280;4324;42.012;24.872;2022-11-27T10:05:18;99974.34;;;10.46;72.93
8573;BME280;4324;42.012;24.872;2022-11-27T10:08:13;99913.88;;;10.12;73.18
8573;BME280;4324;42.012;24.872;2022-11-27T10:10:52;99964.47;;;10.38;73.50
8573;BME280;4324;42.012;24.872;2022-11-27T10:13:43;99974.63;;;10.43;73.86
8573;BME280;4324;42.012;24.872;2022-11-27T10:16:21;99904.28;;;9.92;73.77
8573;BME280;4324;42.012;24.872;2022-11-27T10:19:22;99971.00;;;10.34;74.01
8573;BME280;4324;42.012;24.872;2022-11-27T10:21:55;99966.00;;;10.31;73.15
8573;BME280;4324;42.012;24.872;2022-11-27T10:24:31;99964.31;;;10.21;72.43
8573;BME280;4324;42.012;24.872;2022-11-27T10:27:14;99897.19;;;9.83;72.53
8573;BME280;4324;42.012;24.872;2022-11-27T10:29:47;99932.25;;;10.14;72.75
8573;BME280;4324;42.012;24.872;2022-11-27T10:32:20;99961.53;;;10.32;72.81
8573;BME280;4324;42.012;24.872;2022-11-27T10:34:52;99903.56;;;10.00;72.87
8573;BME280;4324;42.012;24.872;2022-11-27T10:37:25;99886.31;;;9.86;72.65
8573;BME280;4324;42.012;24.872;2022-11-27T10:40:01;99893.00;;;10.00;72.19
8573;BME280;4324;42.012;24.872;2022-11-27T10:42:36;99929.22;;;10.28;72.43
8573;BME280;4324;42.012;24.872;2022-11-27T10:45:11;99912.22;;;10.31;72.66
8573;BME280;4324;42.012;24.872;2022-11-27T10:47:44;99871.13;;;10.07;72.68
8573;BME280;4324;42.012;24.872;2022-11-27T10:50:15;99917.75;;;10.47;72.71
8573;BME280;4324;42.012;24.872;2022-11-27T10:52:48;99907.84;;;10.49;72.52
8573;BME280;4324;42.012;24.872;2022-11-27T10:55:24;99875.28;;;10.29;71.52
8573;BME280;4324;42.012;24.872;2022-11-27T10:58:02;99898.22;;;10.48;71.41
8573;BME280;4324;42.012;24.872;2022-11-27T11:00:32;99916.59;;;10.59;71.66
8573;BME280;4324;42.012;24.872;2022-11-27T11:03:03;99911.03;;;10.62;71.77
8573;BME280;4324;42.012;24.872;2022-11-27T11:05:32;99910.47;;;10.69;71.74
8573;BME280;4324;42.012;24.872;2022-11-27T11:08:01;99856.31;;;10.44;71.88
8573;BME280;4324;42.012;24.872;2022-11-27T11:10:33;99830.56;;;10.36;71.66
8573;BME280;4324;42.012;24.872;2022-11-27T11:13:13;99844.72;;;10.54;70.78
8573;BME280;4324;42.012;24.872;2022-11-27T11:16:01;99896.56;;;10.94;70.61
8573;BME280;4324;42.012;24.872;2022-11-27T11:18:31;99871.00;;;10.93;70.97
8573;BME280;4324;42.012;24.872;2022-11-27T11:21:00;99886.44;;;11.07;70.50
8573;BME280;4324;42.012;24.872;2022-11-27T11:23:30;99879.56;;;11.14;70.46
8573;BME280;4324;42.012;24.872;2022-11-27T11:26:02;99885.94;;;11.22;70.42
8573;BME280;4324;42.012;24.872;2022-11-27T11:28:32;99850.31;;;11.06;70.39
8573;BME280;4324;42.012;24.872;2022-11-27T11:31:09;99846.63;;;11.17;70.00
8573;BME280;4324;42.012;24.872;2022-11-27T11:33:45;99863.31;;;11.45;69.53
8573;BME280;4324;42.012;24.872;2022-11-27T11:36:14;99867.94;;;11.43;69.44
8573;BME280;4324;42.012;24.872;2022-11-27T11:38:43;99850.72;;;11.29;69.56
8573;BME280;4324;42.012;24.872;2022-11-27T11:41:12;99829.19;;;11.14;69.32
8573;BME280;4324;42.012;24.872;2022-11-27T11:43:52;99825.34;;;11.09;69.33
8573;BME280;4324;42.012;24.872;2022-11-27T11:46:23;99854.22;;;11.30;69.16
8573;BME280;4324;42.012;24.872;2022-11-27T11:48:55;99765.47;;;10.88;68.93
8573;BME280;4324;42.012;24.872;2022-11-27T11:51:31;99833.41;;;11.35;68.06
8573;BME280;4324;42.012;24.872;2022-11-27T11:54:12;99850.22;;;11.61;67.89
8573;BME280;4324;42.012;24.872;2022-11-27T11:56:47;99842.94;;;11.63;67.82
8573;BME280;4324;42.012;24.872;2022-11-27T11:59:25;99845.75;;;11.62;67.64
8573;BME280;4324;42.012;24.872;2022-11-27T12:02:19;99806.56;;;11.38;68.08
8573;BME280;4324;42.012;24.872;2022-11-27T12:05:21;99847.56;;;11.61;68.07
8573;BME280;4324;42.012;24.872;2022-11-27T12:08:02;99818.03;;;11.38;67.40
8573;BME280;4324;42.012;24.872;2022-11-27T12:10:41;99824.97;;;11.39;67.06
8573;BME280;4324;42.012;24.872;2022-11-27T12:13:19;99833.00;;;11.48;67.02
8573;BME280;4324;42.012;24.872;2022-11-27T12:16:06;99824.97;;;11.39;67.20
8573;BME280;4324;42.012;24.872;2022-11-27T12:19:01;99836.13;;;11.43;67.47
8573;BME280;4324;42.012;24.872;2022-11-27T12:21:44;99797.63;;;11.21;67.16
8573;BME280;4324;42.012;24.872;2022-11-27T12:24:27;99836.88;;;11.53;67.63
8573;BME280;4324;42.012;24.872;2022-11-27T12:27:04;99828.47;;;11.58;66.85
8573;BME280;4324;42.012;24.872;2022-11-27T12:30:01;99803.06;;;11.55;66.49
8573;BME280;4324;42.012;24.872;2022-11-27T12:32:45;99798.22;;;11.69;66.42
8573;BME280;4324;42.012;24.872;2022-11-27T12:35:27;99803.28;;;11.80;66.36
8573;BME280;4324;42.012;24.872;2022-11-27T12:38:06;99775.66;;;11.65;66.21
8573;BME280;4324;42.012;24.872;2022-11-27T12:40:49;99815.03;;;11.95;66.06
8573;BME280;4324;42.012;24.872;2022-11-27T12:43:24;99795.03;;;11.83;66.17
8573;BME280;4324;42.012;24.872;2022-11-27T12:45:57;99779.66;;;11.69;65.69
8573;BME280;4324;42.012;24.872;2022-11-27T12:48:30;99760.84;;;11.62;65.44
8573;BME280;4324;42.012;24.872;2022-11-27T12:51:03;99788.97;;;11.73;65.68
8573;BME280;4324;42.012;24.872;2022-11-27T12:53:35;99784.56;;;11.63;65.56
8573;BME280;4324;42.012;24.872;2022-11-27T12:56:08;99811.25;;;11.80;65.50
8573;BME280;4324;42.012;24.872;2022-11-27T12:58:44;99763.06;;;11.49;65.29
8573;BME280;4324;42.012;24.872;2022-11-27T13:01:17;99809.03;;;11.75;65.17
8573;BME280;4324;42.012;24.872;2022-11-27T13:03:56;99774.19;;;11.52;64.67
8573;BME280;4324;42.012;24.872;2022-11-27T13:06:28;99792.91;;;11.69;64.59
8573;BME280;4324;42.012;24.872;2022-11-27T13:09:00;99775.41;;;11.58;64.22
8573;BME280;4324;42.012;24.872;2022-11-27T13:11:32;99809.41;;;11.80;64.42
8573;BME280;4324;42.012;24.872;2022-11-27T13:14:04;99776.59;;;11.63;64.46
8573;BME280;4324;42.012;24.872;2022-11-27T13:16:37;99773.75;;;11.57;64.50
8573;BME280;4324;42.012;24.872;2022-11-27T13:19:12;99792.63;;;11.72;64.46
8573;BME280;4324;42.012;24.872;2022-11-27T13:21:41;99760.03;;;11.44;64.35
8573;BME280;4324;42.012;24.872;2022-11-27T13:24:10;99759.34;;;11.42;64.07
8573;BME280;4324;42.012;24.872;2022-11-27T13:26:41;99814.13;;;11.69;63.74
8573;BME280;4324;42.012;24.872;2022-11-27T13:29:16;99785.50;;;11.54;64.00
8573;BME280;4324;42.012;24.872;2022-11-27T13:31:49;99760.94;;;11.34;63.96
8573;BME280;4324;42.012;24.872;2022-11-27T13:34:20;99804.72;;;11.56;64.00